sensor_id;sensor_type;location;lat;lon;timestamp;temperature;humidity
13091;DHT22;6611;52.604;13.438;2023-04-08T00:00:15;5.70;92.48
13091;DHT22;6611;52.604;13.438;2023-04-08T00:05:17;5.67;92.47
13091;DHT22;6611;52.604;13.438;2023-04-08T00:10:19;5.63;92.37
13091;DHT22;6611;52.604;13.438;2023-04-08T00:15:23;5.70;92.73
13091;DHT22;6611;52.604;13.438;2023-04-08T00:20:24;5.71;92.29
13091;DHT22;6611;52.604;13.438;2023-04-08T00:25:26;5.74;92.45
13091;DHT22;6611;52.604;13.438;2023-04-08T00:30:29;5.70;92.55
13091;DHT22;6611;52.604;13.438;2023-04-08T00:35:31;5.73;92.60
13091;DHT22;6611;52.604;13.438;2023-04-08T00:40:33;5.73;92.49
13091;DHT22;6611;52.604;13.438;2023-04-08T00:45:36;5.78;92.39
13091;DHT22;6611;52.604;13.438;2023-04-08T00:50:38;5.90;92.16
13091;DHT22;6611;52.604;13.438;2023-04-08T00:55:40;5.74;92.17
13091;DHT22;6611;52.604;13.438;2023-04-08T01:00:54;5.73;92.36
13091;DHT22;6611;52.604;13.438;2023-04-08T01:06:06;5.58;92.66
13091;DHT22;6611;52.604;13.438;2023-04-08T01:11:11;5.60;92.90
13091;DHT22;6611;52.604;13.438;2023-04-08T01:16:15;5.64;92.75
13091;DHT22;6611;52.604;13.438;2023-04-08T01:21:19;5.57;92.78
13091;DHT22;6611;52.604;13.438;2023-04-08T01:26:24;5.61;92.93
13091;DHT22;6611;52.604;13.438;2023-04-08T01:31:27;5.64;92.81
13091;DHT22;6611;52.604;13.438;2023-04-08T01:36:30;5.61;92.97
13091;DHT22;6611;52.604;13.438;2023-04-08T01:41:34;5.57;93.18
13091;DHT22;6611;52.604;13.438;2023-04-08T01:46:37;5.63;92.85
13091;DHT22;6611;52.604;13.438;2023-04-08T01:51:40;5.64;92.97
13091;DHT22;6611;52.604;13.438;2023-04-08T01:56:43;5.74;92.62
13091;DHT22;6611;52.604;13.438;2023-04-08T02:01:46;5.77;92.48
13091;DHT22;6611;52.604;13.438;2023-04-08T02:06:49;5.78;92.60
13091;DHT22;6611;52.604;13.438;2023-04-08T02:11:52;5.75;92.34
13091;DHT22;6611;52.604;13.438;2023-04-08T02:16:55;5.75;92.18
13091;DHT22;6611;52.604;13.438;2023-04-08T02:22:04;5.79;91.95
13091;DHT22;6611;52.604;13.438;2023-04-08T02:27:09;5.71;92.48
13091;DHT22;6611;52.604;13.438;2023-04-08T02:32:11;5.70;92.49
13091;DHT22;6611;52.604;13.438;2023-04-08T02:37:13;5.67;92.58
13091;DHT22;6611;52.604;13.438;2023-04-08T02:42:16;5.70;92.59
13091;DHT22;6611;52.604;13.438;2023-04-08T02:47:18;5.65;92.79
13091;DHT22;6611;52.604;13.438;2023-04-08T02:52:19;5.73;92.77
13091;DHT22;6611;52.604;13.438;2023-04-08T02:57:23;5.71;92.90
13091;DHT22;6611;52.604;13.438;2023-04-08T03:02:24;5.73;92.75
13091;DHT22;6611;52.604;13.438;2023-04-08T03:07:26;5.74;92.73
13091;DHT22;6611;52.604;13.438;2023-04-08T03:12:29;5.70;92.86
13091;DHT22;6611;52.604;13.438;2023-04-08T03:17:32;5.65;93.07
13091;DHT22;6611;52.604;13.438;2023-04-08T03:22:36;5.63;93.24
13091;DHT22;6611;52.604;13.438;2023-04-08T03:27:40;5.74;93.08
13091;DHT22;6611;52.604;13.438;2023-04-08T03:32:42;5.68;93.14
13091;DHT22;6611;52.604;13.438;2023-04-08T03:37:45;5.57;93.55
13091;DHT22;6611;52.604;13.438;2023-04-08T03:42:49;5.64;93.24
13091;DHT22;6611;52.604;13.438;2023-04-08T03:47:51;5.64;93.51
13091;DHT22;6611;52.604;13.438;2023-04-08T03:52:52;5.71;93.47
13091;DHT22;6611;52.604;13.438;2023-04-08T03:57:55;5.68;93.12
13091;DHT22;6611;52.604;13.438;2023-04-08T04:02:57;5.68;93.23
13091;DHT22;6611;52.604;13.438;2023-04-08T04:07:59;5.70;93.01
13091;DHT22;6611;52.604;13.438;2023-04-08T04:13:02;5.74;93.06
13091;DHT22;6611;52.604;13.438;2023-04-08T04:18:03;5.70;92.97
13091;DHT22;6611;52.604;13.438;2023-04-08T04:23:05;5.74;92.95
13091;DHT22;6611;52.604;13.438;2023-04-08T04:28:08;5.74;93.20
13091;DHT22;6611;52.604;13.438;2023-04-08T04:33:10;5.75;92.90
13091;DHT22;6611;52.604;13.438;2023-04-08T04:38:11;5.87;92.74
13091;DHT22;6611;52.604;13.438;2023-04-08T04:43:14;5.85;92.59
13091;DHT22;6611;52.604;13.438;2023-04-08T04:48:16;5.78;92.56
13091;DHT22;6611;52.604;13.438;2023-04-08T04:53:18;5.74;92.84
13091;DHT22;6611;52.604;13.438;2023-04-08T04:58:21;5.84;92.42
13091;DHT22;6611;52.604;13.438;2023-04-08T05:03:22;5.70;92.69
13091;DHT22;6611;52.604;13.438;2023-04-08T05:08:24;5.74;92.78
13091;DHT22;6611;52.604;13.438;2023-04-08T05:13:27;5.78;92.74
13091;DHT22;6611;52.604;13.438;2023-04-08T05:18:29;5.82;92.44
13091;DHT22;6611;52.604;13.438;2023-04-08T05:23:30;5.84;92.75
13091;DHT22;6611;52.604;13.438;2023-04-08T05:28:33;5.97;92.57
13091;DHT22;6611;52.604;13.438;2023-04-08T05:33:35;5.87;92.50
13091;DHT22;6611;52.604;13.438;2023-04-08T05:38:37;5.94;92.77
13091;DHT22;6611;52.604;13.438;2023-04-08T05:43:41;5.91;92.61
13091;DHT22;6611;52.604;13.438;2023-04-08T05:48:43;6.01;92.86
13091;DHT22;6611;52.604;13.438;2023-04-08T05:53:44;6.08;92.38
13091;DHT22;6611;52.604;13.438;2023-04-08T05:58:48;6.06;91.76
13091;DHT22;6611;52.604;13.438;2023-04-08T06:03:50;6.13;92.14
13091;DHT22;6611;52.604;13.438;2023-04-08T06:08:54;6.20;92.24
13091;DHT22;6611;52.604;13.438;2023-04-08T06:13:58;6.25;92.27
13091;DHT22;6611;52.604;13.438;2023-04-08T06:18:59;6.20;92.34
13091;DHT22;6611;52.604;13.438;2023-04-08T06:24:02;6.33;92.35
13091;DHT22;6611;52.604;13.438;2023-04-08T06:29:05;6.38;92.01
13091;DHT22;6611;52.604;13.438;2023-04-08T06:34:07;6.50;91.93
13091;DHT22;6611;52.604;13.438;2023-04-08T06:39:09;6.54;91.47
13091;DHT22;6611;52.604;13.438;2023-04-08T06:44:12;6.50;92.01
13091;DHT22;6611;52.604;13.438;2023-04-08T06:49:13;6.53;92.12
13091;DHT22;6611;52.604;13.438;2023-04-08T06:54:15;6.67;91.70
13091;DHT22;6611;52.604;13.438;2023-04-08T06:59:18;6.67;91.40
13091;DHT22;6611;52.604;13.438;2023-04-08T07:04:20;6.92;90.80
13091;DHT22;6611;52.604;13.438;2023-04-08T07:09:22;6.92;90.34
13091;DHT22;6611;52.604;13.438;2023-04-08T07:14:25;7.03;90.28
13091;DHT22;6611;52.604;13.438;2023-04-08T07:19:26;7.20;90.29
13091;DHT22;6611;52.604;13.438;2023-04-08T07:24:28;7.38;90.18
13091;DHT22;6611;52.604;13.438;2023-04-08T07:29:31;7.34;90.03
13091;DHT22;6611;52.604;13.438;2023-04-08T07:34:33;7.22;90.11
13091;DHT22;6611;52.604;13.438;2023-04-08T07:39:35;7.34;90.25
13091;DHT22;6611;52.604;13.438;2023-04-08T07:44:38;7.26;90.15
13091;DHT22;6611;52.604;13.438;2023-04-08T07:49:40;7.19;89.84
13091;DHT22;6611;52.604;13.438;2023-04-08T07:54:41;7.34;90.11
13091;DHT22;6611;52.604;13.438;2023-04-08T07:59:44;7.40;89.75
13091;DHT22;6611;52.604;13.438;2023-04-08T08:04:46;7.72;89.09
13091;DHT22;6611;52.604;13.438;2023-04-08T08:09:48;7.87;88.62
13091;DHT22;6611;52.604;13.438;2023-04-08T08:14:51;7.86;88.52
13091;DHT22;6611;52.604;13.438;2023-04-08T08:19:54;8.07;87.95
13091;DHT22;6611;52.604;13.438;2023-04-08T08:24:56;8.13;87.54
13091;DHT22;6611;52.604;13.438;2023-04-08T08:30:00;8.20;87.40
13091;DHT22;6611;52.604;13.438;2023-04-08T08:35:01;8.16;88.16
13091;DHT22;6611;52.604;13.438;2023-04-08T08:40:04;8.59;87.55
13091;DHT22;6611;52.604;13.438;2023-04-08T08:45:08;8.75;86.52
13091;DHT22;6611;52.604;13.438;2023-04-08T08:50:09;8.79;86.35
13091;DHT22;6611;52.604;13.438;2023-04-08T08:55:11;8.77;84.90
13091;DHT22;6611;52.604;13.438;2023-04-08T09:00:15;8.51;86.53
13091;DHT22;6611;52.604;13.438;2023-04-08T09:05:17;8.42;86.90
13091;DHT22;6611;52.604;13.438;2023-04-08T09:10:27;8.51;85.61
13091;DHT22;6611;52.604;13.438;2023-04-08T09:15:30;8.73;86.74
13091;DHT22;6611;52.604;13.438;2023-04-08T09:20:32;8.59;86.16
13091;DHT22;6611;52.604;13.438;2023-04-08T09:25:34;8.75;85.20
13091;DHT22;6611;52.604;13.438;2023-04-08T09:30:38;8.73;85.30
13091;DHT22;6611;52.604;13.438;2023-04-08T09:35:41;8.66;85.30
13091;DHT22;6611;52.604;13.438;2023-04-08T09:40:43;9.14;85.22
13091;DHT22;6611;52.604;13.438;2023-04-08T09:45:47;9.86;84.29
13091;DHT22;6611;52.604;13.438;2023-04-08T09:50:50;10.01;81.67
13091;DHT22;6611;52.604;13.438;2023-04-08T09:55:55;9.83;80.94
13091;DHT22;6611;52.604;13.438;2023-04-08T10:00:59;10.14;80.85
13091;DHT22;6611;52.604;13.438;2023-04-08T10:06:01;10.18;80.36
13091;DHT22;6611;52.604;13.438;2023-04-08T10:11:03;10.14;80.78
13091;DHT22;6611;52.604;13.438;2023-04-08T10:16:20;10.14;80.64
13091;DHT22;6611;52.604;13.438;2023-04-08T10:21:35;11.15;76.06
13091;DHT22;6611;52.604;13.438;2023-04-08T10:26:38;11.06;73.59
13091;DHT22;6611;52.604;13.438;2023-04-08T10:31:42;11.00;73.46
13091;DHT22;6611;52.604;13.438;2023-04-08T10:36:44;10.87;74.48
13091;DHT22;6611;52.604;13.438;2023-04-08T10:41:47;10.92;72.52
13091;DHT22;6611;52.604;13.438;2023-04-08T10:46:51;10.87;73.19
13091;DHT22;6611;52.604;13.438;2023-04-08T10:51:53;10.97;72.67
13091;DHT22;6611;52.604;13.438;2023-04-08T10:56:55;11.24;73.21
13091;DHT22;6611;52.604;13.438;2023-04-08T11:01:58;11.58;71.46
13091;DHT22;6611;52.604;13.438;2023-04-08T11:07:04;12.04;70.42
13091;DHT22;6611;52.604;13.438;2023-04-08T11:12:06;11.82;71.36
13091;DHT22;6611;52.604;13.438;2023-04-08T11:17:09;11.52;71.48
13091;DHT22;6611;52.604;13.438;2023-04-08T11:22:12;11.59;69.84
13091;DHT22;6611;52.604;13.438;2023-04-08T11:27:14;11.46;70.74
13091;DHT22;6611;52.604;13.438;2023-04-08T11:32:17;11.61;70.67
13091;DHT22;6611;52.604;13.438;2023-04-08T11:37:20;11.48;72.41
13091;DHT22;6611;52.604;13.438;2023-04-08T11:42:25;12.08;68.25
13091;DHT22;6611;52.604;13.438;2023-04-08T11:47:32;12.13;66.99
13091;DHT22;6611;52.604;13.438;2023-04-08T11:52:41;11.80;70.98
13091;DHT22;6611;52.604;13.438;2023-04-08T11:57:43;11.77;67.47
13091;DHT22;6611;52.604;13.438;2023-04-08T12:02:46;11.74;68.18
13091;DHT22;6611;52.604;13.438;2023-04-08T12:07:48;12.01;69.14
13091;DHT22;6611;52.604;13.438;2023-04-08T12:12:50;12.08;67.61
13091;DHT22;6611;52.604;13.438;2023-04-08T12:17:53;12.02;68.30
13091;DHT22;6611;52.604;13.438;2023-04-08T12:22:55;12.34;69.16
13091;DHT22;6611;52.604;13.438;2023-04-08T12:27:56;12.42;66.72
13091;DHT22;6611;52.604;13.438;2023-04-08T12:32:59;12.17;67.45
13091;DHT22;6611;52.604;13.438;2023-04-08T12:38:01;12.24;67.34
13091;DHT22;6611;52.604;13.438;2023-04-08T12:43:03;12.24;68.48
13091;DHT22;6611;52.604;13.438;2023-04-08T12:48:06;12.80;67.00
13091;DHT22;6611;52.604;13.438;2023-04-08T12:53:07;13.16;65.64
13091;DHT22;6611;52.604;13.438;2023-04-08T12:58:09;12.93;63.29
13091;DHT22;6611;52.604;13.438;2023-04-08T13:03:12;13.21;62.56
13091;DHT22;6611;52.604;13.438;2023-04-08T13:08:16;13.49;60.37
13091;DHT22;6611;52.604;13.438;2023-04-08T13:13:18;13.70;59.72
13091;DHT22;6611;52.604;13.438;2023-04-08T13:18:21;13.85;61.32
13091;DHT22;6611;52.604;13.438;2023-04-08T13:23:23;13.83;60.43
13091;DHT22;6611;52.604;13.438;2023-04-08T13:28:25;13.78;58.74
13091;DHT22;6611;52.604;13.438;2023-04-08T13:33:28;13.71;57.51
13091;DHT22;6611;52.604;13.438;2023-04-08T13:38:30;13.14;59.08
13091;DHT22;6611;52.604;13.438;2023-04-08T13:43:31;13.46;61.00
13091;DHT22;6611;52.604;13.438;2023-04-08T13:48:37;13.69;60.04
13091;DHT22;6611;52.604;13.438;2023-04-08T13:53:39;14.00;58.01
13091;DHT22;6611;52.604;13.438;2023-04-08T13:58:40;14.36;56.37
13091;DHT22;6611;52.604;13.438;2023-04-08T14:03:43;13.74;53.71
13091;DHT22;6611;52.604;13.438;2023-04-08T14:08:45;13.93;57.36
13091;DHT22;6611;52.604;13.438;2023-04-08T14:13:47;14.14;56.35
13091;DHT22;6611;52.604;13.438;2023-04-08T14:18:50;13.95;55.43
13091;DHT22;6611;52.604;13.438;2023-04-08T14:23:51;13.95;55.55
13091;DHT22;6611;52.604;13.438;2023-04-08T14:28:53;14.18;55.51
13091;DHT22;6611;52.604;13.438;2023-04-08T14:33:57;14.24;54.77
13091;DHT22;6611;52.604;13.438;2023-04-08T14:38:59;14.28;53.46
13091;DHT22;6611;52.604;13.438;2023-04-08T14:44:00;14.15;54.41
13091;DHT22;6611;52.604;13.438;2023-04-08T14:49:05;14.39;53.77
13091;DHT22;6611;52.604;13.438;2023-04-08T14:54:06;14.46;53.57
13091;DHT22;6611;52.604;13.438;2023-04-08T14:59:08;13.95;57.78
13091;DHT22;6611;52.604;13.438;2023-04-08T15:04:11;13.39;57.07
13091;DHT22;6611;52.604;13.438;2023-04-08T15:09:12;13.04;57.35
13091;DHT22;6611;52.604;13.438;2023-04-08T15:14:14;12.81;58.62
13091;DHT22;6611;52.604;13.438;2023-04-08T15:19:17;13.34;57.31
13091;DHT22;6611;52.604;13.438;2023-04-08T15:24:19;13.62;54.95
13091;DHT22;6611;52.604;13.438;2023-04-08T15:29:21;13.83;55.07
13091;DHT22;6611;52.604;13.438;2023-04-08T15:34:25;14.02;55.04
13091;DHT22;6611;52.604;13.438;2023-04-08T15:39:27;14.08;55.53
13091;DHT22;6611;52.604;13.438;2023-04-08T15:44:29;13.52;57.12
13091;DHT22;6611;52.604;13.438;2023-04-08T15:49:33;13.05;57.79
13091;DHT22;6611;52.604;13.438;2023-04-08T15:54:35;12.67;59.07
13091;DHT22;6611;52.604;13.438;2023-04-08T15:59:37;12.81;58.83
13091;DHT22;6611;52.604;13.438;2023-04-08T16:04:40;13.04;57.93
13091;DHT22;6611;52.604;13.438;2023-04-08T16:09:42;13.10;58.01
13091;DHT22;6611;52.604;13.438;2023-04-08T16:14:44;13.03;58.35
13091;DHT22;6611;52.604;13.438;2023-04-08T16:19:49;13.05;58.56
13091;DHT22;6611;52.604;13.438;2023-04-08T16:24:50;13.01;58.23
13091;DHT22;6611;52.604;13.438;2023-04-08T16:29:52;12.84;58.99
13091;DHT22;6611;52.604;13.438;2023-04-08T16:34:57;12.75;58.85
13091;DHT22;6611;52.604;13.438;2023-04-08T16:39:59;12.62;60.06
13091;DHT22;6611;52.604;13.438;2023-04-08T16:45:01;12.56;59.27
13091;DHT22;6611;52.604;13.438;2023-04-08T16:50:05;12.38;60.22
13091;DHT22;6611;52.604;13.438;2023-04-08T16:55:08;12.34;61.02
13091;DHT22;6611;52.604;13.438;2023-04-08T17:00:11;12.18;62.17
13091;DHT22;6611;52.604;13.438;2023-04-08T17:05:14;12.17;61.46
13091;DHT22;6611;52.604;13.438;2023-04-08T17:10:16;12.22;65.09
13091;DHT22;6611;52.604;13.438;2023-04-08T17:15:18;12.18;64.57
13091;DHT22;6611;52.604;13.438;2023-04-08T17:20:21;12.13;65.81
13091;DHT22;6611;52.604;13.438;2023-04-08T17:25:24;11.94;65.36
13091;DHT22;6611;52.604;13.438;2023-04-08T17:30:25;11.83;62.55
13091;DHT22;6611;52.604;13.438;2023-04-08T17:35:28;11.66;64.54
13091;DHT22;6611;52.604;13.438;2023-04-08T17:40:30;11.36;65.31
13091;DHT22;6611;52.604;13.438;2023-04-08T17:45:32;11.08;66.41
13091;DHT22;6611;52.604;13.438;2023-04-08T17:50:35;10.80;67.49
13091;DHT22;6611;52.604;13.438;2023-04-08T17:55:37;10.70;67.89
13091;DHT22;6611;52.604;13.438;2023-04-08T18:00:38;10.44;68.46
13091;DHT22;6611;52.604;13.438;2023-04-08T18:05:42;10.34;68.90
13091;DHT22;6611;52.604;13.438;2023-04-08T18:10:44;10.28;68.03
13091;DHT22;6611;52.604;13.438;2023-04-08T18:15:45;9.98;68.67
13091;DHT22;6611;52.604;13.438;2023-04-08T18:20:48;9.91;69.69
13091;DHT22;6611;52.604;13.438;2023-04-08T18:25:50;9.79;70.42
13091;DHT22;6611;52.604;13.438;2023-04-08T18:30:52;9.66;70.15
13091;DHT22;6611;52.604;13.438;2023-04-08T18:35:55;9.75;69.95
13091;DHT22;6611;52.604;13.438;2023-04-08T18:40:56;9.63;70.05
13091;DHT22;6611;52.604;13.438;2023-04-08T18:45:58;9.46;70.55
13091;DHT22;6611;52.604;13.438;2023-04-08T18:51:01;9.46;69.14
13091;DHT22;6611;52.604;13.438;2023-04-08T18:56:04;9.11;70.38
13091;DHT22;6611;52.604;13.438;2023-04-08T19:01:05;9.16;70.66
13091;DHT22;6611;52.604;13.438;2023-04-08T19:06:10;9.11;70.72
13091;DHT22;6611;52.604;13.438;2023-04-08T19:11:12;9.26;70.85
13091;DHT22;6611;52.604;13.438;2023-04-08T19:16:13;9.23;70.74
13091;DHT22;6611;52.604;13.438;2023-04-08T19:21:17;9.14;70.96
13091;DHT22;6611;52.604;13.438;2023-04-08T19:26:18;9.18;70.19
13091;DHT22;6611;52.604;13.438;2023-04-08T19:31:20;9.16;71.33
13091;DHT22;6611;52.604;13.438;2023-04-08T19:36:24;9.03;72.38
13091;DHT22;6611;52.604;13.438;2023-04-08T19:41:25;9.07;71.10
13091;DHT22;6611;52.604;13.438;2023-04-08T19:46:27;8.99;71.25
13091;DHT22;6611;52.604;13.438;2023-04-08T19:51:30;8.97;70.99
13091;DHT22;6611;52.604;13.438;2023-04-08T19:56:35;8.93;70.27
13091;DHT22;6611;52.604;13.438;2023-04-08T20:01:37;8.87;69.28
13091;DHT22;6611;52.604;13.438;2023-04-08T20:06:41;8.80;70.33
13091;DHT22;6611;52.604;13.438;2023-04-08T20:11:43;8.77;69.12
13091;DHT22;6611;52.604;13.438;2023-04-08T20:16:44;8.72;69.82
13091;DHT22;6611;52.604;13.438;2023-04-08T20:21:47;8.58;70.60
13091;DHT22;6611;52.604;13.438;2023-04-08T20:26:49;8.59;70.00
13091;DHT22;6611;52.604;13.438;2023-04-08T20:31:51;8.59;69.51
13091;DHT22;6611;52.604;13.438;2023-04-08T20:36:55;8.44;69.94
13091;DHT22;6611;52.604;13.438;2023-04-08T20:41:56;8.27;70.71
13091;DHT22;6611;52.604;13.438;2023-04-08T20:46:58;8.06;72.70
13091;DHT22;6611;52.604;13.438;2023-04-08T20:52:01;8.02;74.10
13091;DHT22;6611;52.604;13.438;2023-04-08T20:57:03;8.00;73.17
13091;DHT22;6611;52.604;13.438;2023-04-08T21:02:05;7.96;74.34
13091;DHT22;6611;52.604;13.438;2023-04-08T21:07:08;8.13;73.65
13091;DHT22;6611;52.604;13.438;2023-04-08T21:12:10;8.07;73.28
13091;DHT22;6611;52.604;13.438;2023-04-08T21:17:12;8.10;73.44
13091;DHT22;6611;52.604;13.438;2023-04-08T21:22:15;8.19;72.54
13091;DHT22;6611;52.604;13.438;2023-04-08T21:27:16;8.13;73.68
13091;DHT22;6611;52.604;13.438;2023-04-08T21:32:18;8.13;73.93
13091;DHT22;6611;52.604;13.438;2023-04-08T21:37:21;8.16;74.19
13091;DHT22;6611;52.604;13.438;2023-04-08T21:42:23;8.16;73.51
13091;DHT22;6611;52.604;13.438;2023-04-08T21:47:25;8.09;74.33
13091;DHT22;6611;52.604;13.438;2023-04-08T21:52:29;8.06;74.76
13091;DHT22;6611;52.604;13.438;2023-04-08T21:57:32;7.99;75.84
13091;DHT22;6611;52.604;13.438;2023-04-08T22:02:33;7.92;75.70
13091;DHT22;6611;52.604;13.438;2023-04-08T22:07:41;7.89;74.25
13091;DHT22;6611;52.604;13.438;2023-04-08T22:12:42;7.74;74.44
13091;DHT22;6611;52.604;13.438;2023-04-08T22:17:45;7.52;74.96
13091;DHT22;6611;52.604;13.438;2023-04-08T22:22:48;7.20;75.61
13091;DHT22;6611;52.604;13.438;2023-04-08T22:27:50;7.00;76.25
13091;DHT22;6611;52.604;13.438;2023-04-08T22:32:51;6.92;76.70
13091;DHT22;6611;52.604;13.438;2023-04-08T22:37:54;6.70;76.98
13091;DHT22;6611;52.604;13.438;2023-04-08T22:42:56;6.53;76.98
13091;DHT22;6611;52.604;13.438;2023-04-08T22:47:58;6.38;77.39
13091;DHT22;6611;52.604;13.438;2023-04-08T22:53:01;6.20;77.51
13091;DHT22;6611;52.604;13.438;2023-04-08T22:58:03;6.10;78.42
13091;DHT22;6611;52.604;13.438;2023-04-08T23:03:04;5.88;79.28
13091;DHT22;6611;52.604;13.438;2023-04-08T23:08:08;5.77;79.25
13091;DHT22;6611;52.604;13.438;2023-04-08T23:13:09;5.64;79.18
13091;DHT22;6611;52.604;13.438;2023-04-08T23:18:13;5.61;79.75
13091;DHT22;6611;52.604;13.438;2023-04-08T23:23:16;5.47;79.64
13091;DHT22;6611;52.604;13.438;2023-04-08T23:28:18;5.48;79.22
13091;DHT22;6611;52.604;13.438;2023-04-08T23:33:19;5.37;80.27
13091;DHT22;6611;52.604;13.438;2023-04-08T23:38:22;5.20;80.00
13091;DHT22;6611;52.604;13.438;2023-04-08T23:43:24;5.05;81.00
13091;DHT22;6611;52.604;13.438;2023-04-08T23:48:26;4.92;81.05
13091;DHT22;6611;52.604;13.438;2023-04-08T23:53:29;4.85;80.78
13091;DHT22;6611;52.604;13.438;2023-04-08T23:58:30;4.77;81.31
